sensor_id;sensor_type;location;lat;lon;timestamp;P1;durP1;ratioP1;P2;durP2;ratioP2
53714;SDS011;39608;55.630;37.864;2024-02-04T00:01:05;20.30;;;10.27;;
53714;SDS011;39608;55.630;37.864;2024-02-04T00:06:09;16.70;;;9.60;;
53714;SDS011;39608;55.630;37.864;2024-02-04T00:11:11;18.13;;;9.25;;
53714;SDS011;39608;55.630;37.864;2024-02-04T00:16:13;18.75;;;10.40;;
53714;SDS011;39608;55.630;37.864;2024-02-04T00:21:16;20.15;;;9.70;;
53714;SDS011;39608;55.630;37.864;2024-02-04T00:26:18;17.08;;;10.07;;
53714;SDS011;39608;55.630;37.864;2024-02-04T00:31:20;21.60;;;10.43;;
53714;SDS011;39608;55.630;37.864;2024-02-04T00:36:23;16.35;;;10.50;;
53714;SDS011;39608;55.630;37.864;2024-02-04T00:41:25;15.00;;;9.38;;
53714;SDS011;39608;55.630;37.864;2024-02-04T00:46:27;15.73;;;9.07;;
53714;SDS011;39608;55.630;37.864;2024-02-04T00:51:31;18.40;;;9.05;;
53714;SDS011;39608;55.630;37.864;2024-02-04T00:56:33;13.65;;;7.82;;
53714;SDS011;39608;55.630;37.864;2024-02-04T01:01:35;16.88;;;7.80;;
53714;SDS011;39608;55.630;37.864;2024-02-04T01:06:38;10.73;;;7.05;;
53714;SDS011;39608;55.630;37.864;2024-02-04T01:11:40;7.00;;;4.30;;
53714;SDS011;39608;55.630;37.864;2024-02-04T01:16:42;9.55;;;6.20;;
53714;SDS011;39608;55.630;37.864;2024-02-04T01:21:45;10.73;;;7.18;;
53714;SDS011;39608;55.630;37.864;2024-02-04T01:26:47;10.10;;;7.15;;
53714;SDS011;39608;55.630;37.864;2024-02-04T01:31:49;8.23;;;5.60;;
53714;SDS011;39608;55.630;37.864;2024-02-04T01:36:53;13.10;;;7.15;;
53714;SDS011;39608;55.630;37.864;2024-02-04T01:41:55;21.70;;;14.00;;
53714;SDS011;39608;55.630;37.864;2024-02-04T01:46:57;21.23;;;13.90;;
53714;SDS011;39608;55.630;37.864;2024-02-04T01:52:00;25.58;;;17.67;;
53714;SDS011;39608;55.630;37.864;2024-02-04T01:57:03;52.78;;;26.73;;
53714;SDS011;39608;55.630;37.864;2024-02-04T02:02:06;33.53;;;20.73;;
53714;SDS011;39608;55.630;37.864;2024-02-04T02:07:10;23.10;;;15.60;;
53714;SDS011;39608;55.630;37.864;2024-02-04T02:12:14;15.18;;;8.13;;
53714;SDS011;39608;55.630;37.864;2024-02-04T02:17:20;15.27;;;7.97;;
53714;SDS011;39608;55.630;37.864;2024-02-04T02:22:55;12.75;;;6.25;;
53714;SDS011;39608;55.630;37.864;2024-02-04T02:28:06;15.93;;;7.68;;
53714;SDS011;39608;55.630;37.864;2024-02-04T02:33:08;12.55;;;7.38;;
53714;SDS011;39608;55.630;37.864;2024-02-04T02:38:13;11.93;;;6.93;;
53714;SDS011;39608;55.630;37.864;2024-02-04T02:43:23;10.00;;;6.20;;
53714;SDS011;39608;55.630;37.864;2024-02-04T02:48:26;8.95;;;5.60;;
53714;SDS011;39608;55.630;37.864;2024-02-04T02:53:29;8.40;;;5.13;;
53714;SDS011;39608;55.630;37.864;2024-02-04T02:58:32;6.80;;;4.05;;
53714;SDS011;39608;55.630;37.864;2024-02-04T03:03:34;7.00;;;5.05;;
53714;SDS011;39608;55.630;37.864;2024-02-04T03:08:36;5.00;;;4.30;;
53714;SDS011;39608;55.630;37.864;2024-02-04T03:13:40;4.63;;;3.35;;
53714;SDS011;39608;55.630;37.864;2024-02-04T03:18:42;3.60;;;2.88;;
53714;SDS011;39608;55.630;37.864;2024-02-04T03:23:44;5.07;;;2.92;;
53714;SDS011;39608;55.630;37.864;2024-02-04T03:28:48;7.55;;;2.67;;
53714;SDS011;39608;55.630;37.864;2024-02-04T03:33:50;2.85;;;2.58;;
53714;SDS011;39608;55.630;37.864;2024-02-04T03:38:52;2.80;;;2.60;;
53714;SDS011;39608;55.630;37.864;2024-02-04T03:43:55;1.75;;;1.65;;
53714;SDS011;39608;55.630;37.864;2024-02-04T03:48:57;2.40;;;2.20;;
53714;SDS011;39608;55.630;37.864;2024-02-04T03:53:59;6.65;;;1.92;;
53714;SDS011;39608;55.630;37.864;2024-02-04T03:59:02;3.42;;;2.45;;
53714;SDS011;39608;55.630;37.864;2024-02-04T04:04:04;1.60;;;1.38;;
53714;SDS011;39608;55.630;37.864;2024-02-04T04:09:07;2.35;;;2.00;;
53714;SDS011;39608;55.630;37.864;2024-02-04T04:14:10;2.47;;;2.28;;
53714;SDS011;39608;55.630;37.864;2024-02-04T04:19:12;5.50;;;2.35;;
53714;SDS011;39608;55.630;37.864;2024-02-04T04:24:14;3.55;;;2.58;;
53714;SDS011;39608;55.630;37.864;2024-02-04T04:29:21;2.05;;;1.95;;
53714;SDS011;39608;55.630;37.864;2024-02-04T04:34:23;6.88;;;2.15;;
53714;SDS011;39608;55.630;37.864;2024-02-04T04:39:25;3.28;;;1.75;;
53714;SDS011;39608;55.630;37.864;2024-02-04T04:44:28;1.73;;;1.63;;
53714;SDS011;39608;55.630;37.864;2024-02-04T04:49:30;2.22;;;1.60;;
53714;SDS011;39608;55.630;37.864;2024-02-04T04:54:32;2.97;;;1.70;;
53714;SDS011;39608;55.630;37.864;2024-02-04T04:59:36;2.65;;;1.63;;
53714;SDS011;39608;55.630;37.864;2024-02-04T05:04:38;1.65;;;1.33;;
53714;SDS011;39608;55.630;37.864;2024-02-04T05:09:44;1.20;;;1.10;;
53714;SDS011;39608;55.630;37.864;2024-02-04T05:14:48;2.72;;;1.40;;
53714;SDS011;39608;55.630;37.864;2024-02-04T05:19:50;2.15;;;1.35;;
53714;SDS011;39608;55.630;37.864;2024-02-04T05:24:52;12.43;;;1.38;;
53714;SDS011;39608;55.630;37.864;2024-02-04T05:29:55;1.80;;;1.20;;
53714;SDS011;39608;55.630;37.864;2024-02-04T05:34:57;3.60;;;1.10;;
53714;SDS011;39608;55.630;37.864;2024-02-04T05:39:59;1.30;;;1.20;;
53714;SDS011;39608;55.630;37.864;2024-02-04T05:45:02;2.22;;;1.10;;
53714;SDS011;39608;55.630;37.864;2024-02-04T05:50:06;9.90;;;1.92;;
53714;SDS011;39608;55.630;37.864;2024-02-04T05:55:09;1.50;;;1.40;;
53714;SDS011;39608;55.630;37.864;2024-02-04T06:00:13;1.42;;;1.23;;
53714;SDS011;39608;55.630;37.864;2024-02-04T06:05:16;3.53;;;1.45;;
53714;SDS011;39608;55.630;37.864;2024-02-04T06:10:18;1.98;;;1.33;;
53714;SDS011;39608;55.630;37.864;2024-02-04T06:15:22;2.60;;;1.40;;
53714;SDS011;39608;55.630;37.864;2024-02-04T06:20:24;2.60;;;1.73;;
53714;SDS011;39608;55.630;37.864;2024-02-04T06:25:26;2.70;;;1.88;;
53714;SDS011;39608;55.630;37.864;2024-02-04T06:30:29;1.98;;;1.23;;
53714;SDS011;39608;55.630;37.864;2024-02-04T06:35:31;1.00;;;0.90;;
53714;SDS011;39608;55.630;37.864;2024-02-04T06:40:33;0.93;;;0.82;;
53714;SDS011;39608;55.630;37.864;2024-02-04T06:45:36;7.47;;;1.35;;
53714;SDS011;39608;55.630;37.864;2024-02-04T06:50:38;1.52;;;1.20;;
53714;SDS011;39608;55.630;37.864;2024-02-04T06:55:41;3.92;;;2.10;;
53714;SDS011;39608;55.630;37.864;2024-02-04T07:00:46;4.10;;;1.42;;
53714;SDS011;39608;55.630;37.864;2024-02-04T07:05:48;3.65;;;1.55;;
53714;SDS011;39608;55.630;37.864;2024-02-04T07:10:50;6.63;;;3.22;;
53714;SDS011;39608;55.630;37.864;2024-02-04T07:15:53;11.52;;;6.00;;
53714;SDS011;39608;55.630;37.864;2024-02-04T07:20:56;14.82;;;4.57;;
53714;SDS011;39608;55.630;37.864;2024-02-04T07:25:58;20.38;;;10.75;;
53714;SDS011;39608;55.630;37.864;2024-02-04T07:31:01;19.95;;;11.65;;
53714;SDS011;39608;55.630;37.864;2024-02-04T07:36:03;22.38;;;11.35;;
53714;SDS011;39608;55.630;37.864;2024-02-04T07:41:06;19.42;;;8.55;;
53714;SDS011;39608;55.630;37.864;2024-02-04T07:46:09;16.85;;;8.60;;
53714;SDS011;39608;55.630;37.864;2024-02-04T07:51:11;8.75;;;6.07;;
53714;SDS011;39608;55.630;37.864;2024-02-04T07:56:13;7.53;;;4.28;;
53714;SDS011;39608;55.630;37.864;2024-02-04T08:01:17;10.52;;;3.45;;
53714;SDS011;39608;55.630;37.864;2024-02-04T08:06:19;7.05;;;2.47;;
53714;SDS011;39608;55.630;37.864;2024-02-04T08:11:21;9.15;;;2.60;;
53714;SDS011;39608;55.630;37.864;2024-02-04T08:16:24;5.40;;;2.53;;
53714;SDS011;39608;55.630;37.864;2024-02-04T08:21:26;5.40;;;2.05;;
53714;SDS011;39608;55.630;37.864;2024-02-04T08:26:31;3.83;;;1.67;;
53714;SDS011;39608;55.630;37.864;2024-02-04T08:31:35;5.22;;;1.52;;
53714;SDS011;39608;55.630;37.864;2024-02-04T08:36:37;2.13;;;1.17;;
53714;SDS011;39608;55.630;37.864;2024-02-04T08:41:39;2.40;;;1.20;;
53714;SDS011;39608;55.630;37.864;2024-02-04T08:46:42;1.02;;;0.90;;
53714;SDS011;39608;55.630;37.864;2024-02-04T08:51:44;2.30;;;1.20;;
53714;SDS011;39608;55.630;37.864;2024-02-04T08:56:46;4.38;;;2.28;;
53714;SDS011;39608;55.630;37.864;2024-02-04T09:01:49;1.20;;;1.10;;
53714;SDS011;39608;55.630;37.864;2024-02-04T09:06:54;2.95;;;1.65;;
53714;SDS011;39608;55.630;37.864;2024-02-04T09:11:56;4.50;;;2.05;;
53714;SDS011;39608;55.630;37.864;2024-02-04T09:17:01;4.97;;;2.03;;
53714;SDS011;39608;55.630;37.864;2024-02-04T09:22:04;3.30;;;1.60;;
53714;SDS011;39608;55.630;37.864;2024-02-04T09:27:06;7.85;;;2.08;;
53714;SDS011;39608;55.630;37.864;2024-02-04T09:32:09;10.13;;;3.00;;
53714;SDS011;39608;55.630;37.864;2024-02-04T09:37:11;7.45;;;2.50;;
53714;SDS011;39608;55.630;37.864;2024-02-04T09:42:20;12.15;;;2.60;;
53714;SDS011;39608;55.630;37.864;2024-02-04T09:47:25;3.20;;;1.35;;
53714;SDS011;39608;55.630;37.864;2024-02-04T09:52:28;7.50;;;2.63;;
53714;SDS011;39608;55.630;37.864;2024-02-04T09:57:31;8.88;;;2.60;;
53714;SDS011;39608;55.630;37.864;2024-02-04T10:02:37;10.43;;;3.30;;
53714;SDS011;39608;55.630;37.864;2024-02-04T10:07:39;6.97;;;2.03;;
53714;SDS011;39608;55.630;37.864;2024-02-04T10:12:41;6.70;;;2.33;;
53714;SDS011;39608;55.630;37.864;2024-02-04T10:17:46;9.07;;;3.25;;
53714;SDS011;39608;55.630;37.864;2024-02-04T10:22:48;15.40;;;3.50;;
53714;SDS011;39608;55.630;37.864;2024-02-04T10:27:50;17.08;;;2.90;;
53714;SDS011;39608;55.630;37.864;2024-02-04T10:32:54;10.77;;;2.95;;
53714;SDS011;39608;55.630;37.864;2024-02-04T10:37:56;9.80;;;2.70;;
53714;SDS011;39608;55.630;37.864;2024-02-04T10:42:59;15.48;;;3.58;;
53714;SDS011;39608;55.630;37.864;2024-02-04T10:48:06;8.17;;;2.33;;
53714;SDS011;39608;55.630;37.864;2024-02-04T10:53:09;17.90;;;3.03;;
53714;SDS011;39608;55.630;37.864;2024-02-04T10:58:16;5.10;;;2.10;;
53714;SDS011;39608;55.630;37.864;2024-02-04T11:03:20;11.68;;;2.40;;
53714;SDS011;39608;55.630;37.864;2024-02-04T11:08:27;11.25;;;2.55;;
53714;SDS011;39608;55.630;37.864;2024-02-04T11:13:29;17.08;;;3.38;;
53714;SDS011;39608;55.630;37.864;2024-02-04T11:18:39;9.63;;;2.35;;
53714;SDS011;39608;55.630;37.864;2024-02-04T11:23:55;19.50;;;2.97;;
53714;SDS011;39608;55.630;37.864;2024-02-04T11:29:10;4.05;;;1.35;;
53714;SDS011;39608;55.630;37.864;2024-02-04T11:34:14;4.20;;;1.50;;
53714;SDS011;39608;55.630;37.864;2024-02-04T11:39:20;8.82;;;1.98;;
53714;SDS011;39608;55.630;37.864;2024-02-04T11:44:24;6.70;;;2.00;;
53714;SDS011;39608;55.630;37.864;2024-02-04T11:49:28;6.78;;;1.92;;
53714;SDS011;39608;55.630;37.864;2024-02-04T11:54:30;10.70;;;2.10;;
53714;SDS011;39608;55.630;37.864;2024-02-04T11:59:33;11.23;;;2.22;;
53714;SDS011;39608;55.630;37.864;2024-02-04T12:04:37;8.50;;;2.03;;
53714;SDS011;39608;55.630;37.864;2024-02-04T12:09:40;5.32;;;2.17;;
53714;SDS011;39608;55.630;37.864;2024-02-04T12:14:43;8.48;;;2.35;;
53714;SDS011;39608;55.630;37.864;2024-02-04T12:19:48;9.40;;;3.75;;
53714;SDS011;39608;55.630;37.864;2024-02-04T12:24:51;6.55;;;1.88;;
53714;SDS011;39608;55.630;37.864;2024-02-04T12:29:53;4.90;;;1.08;;
53714;SDS011;39608;55.630;37.864;2024-02-04T12:34:58;5.20;;;2.10;;
53714;SDS011;39608;55.630;37.864;2024-02-04T12:40:01;3.67;;;1.60;;
53714;SDS011;39608;55.630;37.864;2024-02-04T12:45:04;5.60;;;1.60;;
53714;SDS011;39608;55.630;37.864;2024-02-04T12:50:08;4.80;;;1.83;;
53714;SDS011;39608;55.630;37.864;2024-02-04T12:55:21;4.78;;;1.80;;
53714;SDS011;39608;55.630;37.864;2024-02-04T13:00:25;3.38;;;1.30;;
53714;SDS011;39608;55.630;37.864;2024-02-04T13:05:28;2.63;;;1.20;;
53714;SDS011;39608;55.630;37.864;2024-02-04T13:10:31;3.15;;;1.33;;
53714;SDS011;39608;55.630;37.864;2024-02-04T13:15:39;3.58;;;1.50;;
53714;SDS011;39608;55.630;37.864;2024-02-04T13:20:44;1.38;;;1.05;;
53714;SDS011;39608;55.630;37.864;2024-02-04T13:25:46;8.15;;;1.67;;
53714;SDS011;39608;55.630;37.864;2024-02-04T13:30:48;3.28;;;1.27;;
53714;SDS011;39608;55.630;37.864;2024-02-04T13:35:53;2.63;;;1.40;;
53714;SDS011;39608;55.630;37.864;2024-02-04T13:40:56;4.88;;;1.40;;
53714;SDS011;39608;55.630;37.864;2024-02-04T13:45:58;5.97;;;1.90;;
53714;SDS011;39608;55.630;37.864;2024-02-04T13:51:02;3.50;;;1.30;;
53714;SDS011;39608;55.630;37.864;2024-02-04T13:56:05;4.43;;;1.63;;
53714;SDS011;39608;55.630;37.864;2024-02-04T14:01:08;6.47;;;1.98;;
53714;SDS011;39608;55.630;37.864;2024-02-04T14:06:11;3.35;;;1.73;;
53714;SDS011;39608;55.630;37.864;2024-02-04T14:11:13;5.05;;;1.90;;
53714;SDS011;39608;55.630;37.864;2024-02-04T14:16:16;4.25;;;1.95;;
53714;SDS011;39608;55.630;37.864;2024-02-04T14:21:19;2.00;;;1.40;;
53714;SDS011;39608;55.630;37.864;2024-02-04T14:26:21;2.95;;;1.45;;
53714;SDS011;39608;55.630;37.864;2024-02-04T14:31:24;3.67;;;1.95;;
53714;SDS011;39608;55.630;37.864;2024-02-04T14:36:27;4.60;;;2.10;;
53714;SDS011;39608;55.630;37.864;2024-02-04T14:41:30;6.97;;;2.83;;
53714;SDS011;39608;55.630;37.864;2024-02-04T14:46:35;6.80;;;2.22;;
53714;SDS011;39608;55.630;37.864;2024-02-04T14:51:39;5.00;;;1.88;;
53714;SDS011;39608;55.630;37.864;2024-02-04T14:56:41;4.13;;;1.88;;
53714;SDS011;39608;55.630;37.864;2024-02-04T15:01:44;7.53;;;2.05;;
53714;SDS011;39608;55.630;37.864;2024-02-04T15:06:48;16.77;;;2.40;;
53714;SDS011;39608;55.630;37.864;2024-02-04T15:11:51;4.03;;;1.95;;
53714;SDS011;39608;55.630;37.864;2024-02-04T15:16:53;3.15;;;1.80;;
53714;SDS011;39608;55.630;37.864;2024-02-04T15:21:58;2.63;;;1.60;;
53714;SDS011;39608;55.630;37.864;2024-02-04T15:27:00;4.93;;;1.80;;
53714;SDS011;39608;55.630;37.864;2024-02-04T15:32:06;6.20;;;1.40;;
53714;SDS011;39608;55.630;37.864;2024-02-04T15:37:10;5.53;;;2.78;;
53714;SDS011;39608;55.630;37.864;2024-02-04T15:42:13;8.43;;;3.60;;
53714;SDS011;39608;55.630;37.864;2024-02-04T15:47:15;8.02;;;3.10;;
53714;SDS011;39608;55.630;37.864;2024-02-04T15:52:19;8.45;;;3.17;;
53714;SDS011;39608;55.630;37.864;2024-02-04T15:57:22;5.82;;;3.05;;
53714;SDS011;39608;55.630;37.864;2024-02-04T16:02:29;9.27;;;2.92;;
53714;SDS011;39608;55.630;37.864;2024-02-04T16:07:34;4.30;;;2.08;;
53714;SDS011;39608;55.630;37.864;2024-02-04T16:12:36;6.55;;;2.55;;
53714;SDS011;39608;55.630;37.864;2024-02-04T16:17:39;6.68;;;2.65;;
53714;SDS011;39608;55.630;37.864;2024-02-04T16:22:43;5.93;;;2.05;;
53714;SDS011;39608;55.630;37.864;2024-02-04T16:27:45;5.97;;;2.28;;
53714;SDS011;39608;55.630;37.864;2024-02-04T16:32:47;5.97;;;2.70;;
53714;SDS011;39608;55.630;37.864;2024-02-04T16:37:51;9.52;;;3.53;;
53714;SDS011;39608;55.630;37.864;2024-02-04T16:42:53;4.50;;;2.10;;
53714;SDS011;39608;55.630;37.864;2024-02-04T16:47:55;7.72;;;2.60;;
53714;SDS011;39608;55.630;37.864;2024-02-04T16:52:58;5.85;;;2.38;;
53714;SDS011;39608;55.630;37.864;2024-02-04T16:58:00;5.10;;;2.10;;
53714;SDS011;39608;55.630;37.864;2024-02-04T17:03:02;5.20;;;2.55;;
53714;SDS011;39608;55.630;37.864;2024-02-04T17:08:07;4.22;;;2.22;;
53714;SDS011;39608;55.630;37.864;2024-02-04T17:13:10;5.57;;;2.03;;
53714;SDS011;39608;55.630;37.864;2024-02-04T17:18:12;4.10;;;2.35;;
53714;SDS011;39608;55.630;37.864;2024-02-04T17:23:25;6.97;;;2.20;;
53714;SDS011;39608;55.630;37.864;2024-02-04T17:28:28;3.28;;;2.03;;
53714;SDS011;39608;55.630;37.864;2024-02-04T17:33:31;4.10;;;1.90;;
53714;SDS011;39608;55.630;37.864;2024-02-04T17:38:34;4.20;;;2.60;;
53714;SDS011;39608;55.630;37.864;2024-02-04T17:43:37;4.97;;;2.45;;
53714;SDS011;39608;55.630;37.864;2024-02-04T17:48:40;4.63;;;2.80;;
53714;SDS011;39608;55.630;37.864;2024-02-04T17:53:43;4.50;;;3.28;;
53714;SDS011;39608;55.630;37.864;2024-02-04T17:58:45;5.88;;;3.15;;
53714;SDS011;39608;55.630;37.864;2024-02-04T18:03:49;6.50;;;3.60;;
53714;SDS011;39608;55.630;37.864;2024-02-04T18:08:52;5.75;;;3.70;;
53714;SDS011;39608;55.630;37.864;2024-02-04T18:13:55;6.20;;;3.42;;
53714;SDS011;39608;55.630;37.864;2024-02-04T18:18:56;4.35;;;2.88;;
53714;SDS011;39608;55.630;37.864;2024-02-04T18:24:00;26.13;;;2.75;;
53714;SDS011;39608;55.630;37.864;2024-02-04T18:29:04;7.20;;;4.03;;
53714;SDS011;39608;55.630;37.864;2024-02-04T18:34:06;5.68;;;4.03;;
53714;SDS011;39608;55.630;37.864;2024-02-04T18:39:12;8.38;;;4.30;;
53714;SDS011;39608;55.630;37.864;2024-02-04T18:44:15;5.90;;;4.00;;
53714;SDS011;39608;55.630;37.864;2024-02-04T18:49:18;4.53;;;3.90;;
53714;SDS011;39608;55.630;37.864;2024-02-04T18:54:21;7.43;;;4.55;;
53714;SDS011;39608;55.630;37.864;2024-02-04T18:59:24;2.67;;;2.45;;
53714;SDS011;39608;55.630;37.864;2024-02-04T19:04:26;5.15;;;2.45;;
53714;SDS011;39608;55.630;37.864;2024-02-04T19:09:30;2.55;;;2.28;;
53714;SDS011;39608;55.630;37.864;2024-02-04T19:14:31;5.78;;;2.60;;
53714;SDS011;39608;55.630;37.864;2024-02-04T19:19:35;3.55;;;2.63;;
53714;SDS011;39608;55.630;37.864;2024-02-04T19:24:39;7.57;;;2.50;;
53714;SDS011;39608;55.630;37.864;2024-02-04T19:29:41;7.03;;;2.72;;
53714;SDS011;39608;55.630;37.864;2024-02-04T19:34:43;9.98;;;2.88;;
53714;SDS011;39608;55.630;37.864;2024-02-04T19:39:46;3.72;;;2.95;;
53714;SDS011;39608;55.630;37.864;2024-02-04T19:44:48;8.77;;;3.65;;
53714;SDS011;39608;55.630;37.864;2024-02-04T19:49:51;7.10;;;3.72;;
53714;SDS011;39608;55.630;37.864;2024-02-04T19:54:56;8.80;;;5.00;;
53714;SDS011;39608;55.630;37.864;2024-02-04T19:59:58;17.60;;;5.55;;
53714;SDS011;39608;55.630;37.864;2024-02-04T20:05:00;7.90;;;5.43;;
53714;SDS011;39608;55.630;37.864;2024-02-04T20:10:04;10.77;;;4.95;;
53714;SDS011;39608;55.630;37.864;2024-02-04T20:15:07;9.15;;;5.97;;
53714;SDS011;39608;55.630;37.864;2024-02-04T20:20:09;7.50;;;5.55;;
53714;SDS011;39608;55.630;37.864;2024-02-04T20:25:14;11.57;;;5.35;;
53714;SDS011;39608;55.630;37.864;2024-02-04T20:30:16;4.85;;;3.90;;
53714;SDS011;39608;55.630;37.864;2024-02-04T20:35:20;6.40;;;5.13;;
53714;SDS011;39608;55.630;37.864;2024-02-04T20:40:26;9.75;;;5.10;;
53714;SDS011;39608;55.630;37.864;2024-02-04T20:45:28;7.47;;;5.35;;
53714;SDS011;39608;55.630;37.864;2024-02-04T20:50:30;10.95;;;5.07;;
53714;SDS011;39608;55.630;37.864;2024-02-04T20:55:33;7.30;;;3.72;;
53714;SDS011;39608;55.630;37.864;2024-02-04T21:00:36;5.32;;;3.30;;
53714;SDS011;39608;55.630;37.864;2024-02-04T21:05:38;9.48;;;3.20;;
53714;SDS011;39608;55.630;37.864;2024-02-04T21:10:41;5.80;;;3.28;;
53714;SDS011;39608;55.630;37.864;2024-02-04T21:15:43;8.70;;;3.88;;
53714;SDS011;39608;55.630;37.864;2024-02-04T21:20:45;4.57;;;3.90;;
53714;SDS011;39608;55.630;37.864;2024-02-04T21:25:49;4.88;;;3.33;;
53714;SDS011;39608;55.630;37.864;2024-02-04T21:30:51;8.57;;;4.30;;
53714;SDS011;39608;55.630;37.864;2024-02-04T21:35:53;7.10;;;3.78;;
53714;SDS011;39608;55.630;37.864;2024-02-04T21:40:56;6.50;;;3.65;;
53714;SDS011;39608;55.630;37.864;2024-02-04T21:45:58;16.40;;;5.28;;
53714;SDS011;39608;55.630;37.864;2024-02-04T21:51:01;13.48;;;5.97;;
53714;SDS011;39608;55.630;37.864;2024-02-04T21:56:05;10.38;;;5.72;;
53714;SDS011;39608;55.630;37.864;2024-02-04T22:01:07;8.82;;;5.53;;
53714;SDS011;39608;55.630;37.864;2024-02-04T22:06:09;11.50;;;5.35;;
53714;SDS011;39608;55.630;37.864;2024-02-04T22:11:13;7.65;;;4.63;;
53714;SDS011;39608;55.630;37.864;2024-02-04T22:16:15;7.88;;;3.78;;
53714;SDS011;39608;55.630;37.864;2024-02-04T22:21:17;7.43;;;3.90;;
53714;SDS011;39608;55.630;37.864;2024-02-04T22:26:21;4.70;;;4.18;;
53714;SDS011;39608;55.630;37.864;2024-02-04T22:31:23;7.30;;;4.32;;
53714;SDS011;39608;55.630;37.864;2024-02-04T22:36:26;13.32;;;5.40;;
53714;SDS011;39608;55.630;37.864;2024-02-04T22:41:30;7.00;;;4.80;;
53714;SDS011;39608;55.630;37.864;2024-02-04T22:46:34;4.75;;;3.63;;
53714;SDS011;39608;55.630;37.864;2024-02-04T22:51:36;4.95;;;3.35;;
53714;SDS011;39608;55.630;37.864;2024-02-04T22:56:40;5.57;;;3.33;;
53714;SDS011;39608;55.630;37.864;2024-02-04T23:01:42;4.57;;;2.95;;
53714;SDS011;39608;55.630;37.864;2024-02-04T23:06:44;2.30;;;2.10;;
53714;SDS011;39608;55.630;37.864;2024-02-04T23:11:48;2.92;;;1.60;;
53714;SDS011;39608;55.630;37.864;2024-02-04T23:16:50;2.40;;;1.40;;
53714;SDS011;39608;55.630;37.864;2024-02-04T23:21:52;4.03;;;1.20;;
53714;SDS011;39608;55.630;37.864;2024-02-04T23:26:55;4.28;;;1.30;;
53714;SDS011;39608;55.630;37.864;2024-02-04T23:31:57;4.13;;;1.83;;
53714;SDS011;39608;55.630;37.864;2024-02-04T23:36:59;4.22;;;1.15;;
53714;SDS011;39608;55.630;37.864;2024-02-04T23:42:03;1.67;;;0.93;;
53714;SDS011;39608;55.630;37.864;2024-02-04T23:47:05;3.70;;;1.05;;
53714;SDS011;39608;55.630;37.864;2024-02-04T23:52:07;5.07;;;1.17;;
53714;SDS011;39608;55.630;37.864;2024-02-04T23:57:11;3.85;;;1.50;;
